createdAt,value
2022-11-05T00:00:08.724Z,56.17
2022-11-05T00:05:45.721Z,55.88
2022-11-05T00:10:47.795Z,55.76
2022-11-05T00:16:08.260Z,55.76
2022-11-05T00:21:30.114Z,55.63
2022-11-05T00:26:31.998Z,56.17
2022-11-05T00:31:33.900Z,55.86
2022-11-05T00:36:35.780Z,55.64
2022-11-05T00:41:37.719Z,56.00
2022-11-05T00:46:39.663Z,55.73
2022-11-05T00:51:41.505Z,55.61
2022-11-05T00:56:43.385Z,55.71
2022-11-05T01:01:45.452Z,55.75
2022-11-05T01:06:47.452Z,56.13
2022-11-05T01:11:49.443Z,56.07
2022-11-05T01:16:51.351Z,56.04
2022-11-05T01:21:54.204Z,56.19
2022-11-05T01:26:56.442Z,55.76
2022-11-05T01:31:58.587Z,55.55
2022-11-05T01:37:00.576Z,55.72
2022-11-05T01:42:02.689Z,55.88
2022-11-05T01:47:04.687Z,55.53
2022-11-05T01:52:06.632Z,55.35
2022-11-05T01:57:10.843Z,55.49
2022-11-05T02:02:12.936Z,55.33
2022-11-05T02:07:15.101Z,55.79
2022-11-05T02:12:18.457Z,55.69
2022-11-05T02:17:46.903Z,55.74
2022-11-05T02:23:07.521Z,55.58
2022-11-05T02:28:21.785Z,55.54
2022-11-05T02:33:30.108Z,55.62
2022-11-05T02:38:41.155Z,55.74
2022-11-05T02:43:48.095Z,55.38
2022-11-05T02:48:58.041Z,55.95
2022-11-05T02:54:18.848Z,55.51
2022-11-05T02:59:20.741Z,55.76
2022-11-05T03:04:23.761Z,55.35
2022-11-05T03:09:49.007Z,55.75
2022-11-05T03:14:58.921Z,55.78
2022-11-05T03:20:00.799Z,55.72
2022-11-05T03:25:06.945Z,55.71
2022-11-05T03:30:10.878Z,55.66
2022-11-05T03:35:15.254Z,55.73
2022-11-05T03:40:18.637Z,55.41
2022-11-05T03:45:41.520Z,55.69
2022-11-05T03:50:49.565Z,55.90
2022-11-05T03:56:11.664Z,55.99
2022-11-05T04:01:14.501Z,55.86
2022-11-05T04:06:34.911Z,56.09
2022-11-05T04:11:55.101Z,56.12
2022-11-05T04:17:09.941Z,56.47
2022-11-05T04:22:30.448Z,56.25
2022-11-05T04:27:32.388Z,56.32
2022-11-05T04:32:34.263Z,56.26
2022-11-05T04:37:36.229Z,56.37
2022-11-05T04:42:38.111Z,56.55
2022-11-05T04:47:40.040Z,56.70
2022-11-05T04:52:41.987Z,56.69
2022-11-05T04:57:43.887Z,56.44
2022-11-05T05:02:46.461Z,56.53
2022-11-05T05:07:48.317Z,56.50
2022-11-05T05:12:50.266Z,56.80
2022-11-05T05:17:52.565Z,56.37
2022-11-05T05:22:54.854Z,56.70
2022-11-05T05:27:59.560Z,56.76
2022-11-05T05:33:02.191Z,56.51
2022-11-05T05:38:04.106Z,56.89
2022-11-05T05:43:06.004Z,56.48
2022-11-05T05:48:07.891Z,56.85
2022-11-05T05:53:10.264Z,56.58
2022-11-05T05:58:12.510Z,56.40
2022-11-05T06:03:14.730Z,56.56
2022-11-05T06:08:16.796Z,56.85
2022-11-05T06:13:18.745Z,56.46
2022-11-05T06:18:20.719Z,56.00
2022-11-05T06:23:22.605Z,55.95
2022-11-05T06:28:24.609Z,56.08
2022-11-05T06:33:27.013Z,56.06
2022-11-05T06:38:31.402Z,56.02
2022-11-05T06:43:33.506Z,56.09
2022-11-05T06:48:35.454Z,56.09
2022-11-05T06:53:37.326Z,55.92
2022-11-05T06:58:39.215Z,56.07
2022-11-05T07:03:41.180Z,56.03
2022-11-05T07:08:43.070Z,55.92
2022-11-05T07:13:44.956Z,55.88
2022-11-05T07:18:46.884Z,55.81
2022-11-05T07:23:48.884Z,55.64
2022-11-05T07:28:50.865Z,55.62
2022-11-05T07:33:52.821Z,55.48
2022-11-05T07:38:59.867Z,55.39
2022-11-05T07:44:03.940Z,55.46
2022-11-05T07:49:05.868Z,55.36
2022-11-05T07:54:07.891Z,55.59
2022-11-05T07:59:09.791Z,55.38
2022-11-05T08:04:11.692Z,55.18
2022-11-05T08:09:13.647Z,55.03
2022-11-05T08:14:15.644Z,54.74
2022-11-05T08:19:17.599Z,54.87
2022-11-05T08:24:19.633Z,54.72
2022-11-05T08:29:21.519Z,54.80
2022-11-05T08:34:23.530Z,54.84
2022-11-05T08:39:25.611Z,54.78
2022-11-05T08:44:27.624Z,54.74
2022-11-05T08:49:29.620Z,54.33
2022-11-05T08:54:31.581Z,54.86
2022-11-05T08:59:33.593Z,54.44
2022-11-05T09:04:35.536Z,53.89
2022-11-05T09:09:37.556Z,53.97
2022-11-05T09:14:39.410Z,54.42
2022-11-05T09:19:41.392Z,54.46
2022-11-05T09:24:43.576Z,54.44
2022-11-05T09:29:45.612Z,54.20
2022-11-05T09:34:49.067Z,54.39
2022-11-05T09:39:51.029Z,54.18
2022-11-05T09:44:56.470Z,53.50
2022-11-05T09:50:00.873Z,52.74
2022-11-05T09:55:03.902Z,53.54
2022-11-05T10:00:07.069Z,53.22
2022-11-05T10:05:12.084Z,54.03
2022-11-05T10:10:27.267Z,54.25
2022-11-05T10:15:31.352Z,54.10
2022-11-05T10:20:37.641Z,53.81
2022-11-05T10:25:42.328Z,54.38
2022-11-05T10:30:45.426Z,53.99
2022-11-05T10:35:52.024Z,53.78
2022-11-05T10:40:57.190Z,52.89
2022-11-05T10:46:04.869Z,53.11
2022-11-05T10:51:07.324Z,52.78
2022-11-05T10:56:48.451Z,53.05
2022-11-05T11:02:10.057Z,53.29
2022-11-05T11:07:19.959Z,53.36
2022-11-05T11:12:24.275Z,53.14
2022-11-05T11:17:27.891Z,53.09
2022-11-05T11:22:30.076Z,53.49
2022-11-05T11:27:34.114Z,53.19
2022-11-05T11:32:39.415Z,52.84
2022-11-05T11:37:42.266Z,53.50
2022-11-05T11:42:46.011Z,53.32
2022-11-05T11:47:49.404Z,53.42
2022-11-05T11:52:52.325Z,53.65
2022-11-05T11:58:04.710Z,53.30
2022-11-05T12:03:06.723Z,53.71
2022-11-05T12:08:30.243Z,53.87
2022-11-05T12:13:52.394Z,53.75
2022-11-05T12:19:10.320Z,53.95
2022-11-05T12:24:18.337Z,54.02
2022-11-05T12:29:26.714Z,53.97
2022-11-05T12:34:51.423Z,54.01
2022-11-05T12:40:11.763Z,54.11
2022-11-05T12:45:19.918Z,54.22
2022-11-05T12:50:45.519Z,53.99
2022-11-05T12:55:49.604Z,54.06
2022-11-05T13:00:55.552Z,54.56
2022-11-05T13:06:12.484Z,54.19
2022-11-05T13:11:21.698Z,54.09
2022-11-05T13:16:27.406Z,54.27
2022-11-05T13:21:30.167Z,54.46
2022-11-05T13:26:47.339Z,54.26
2022-11-05T13:31:53.472Z,54.13
2022-11-05T13:37:19.751Z,54.50
2022-11-05T13:42:44.361Z,54.94
2022-11-05T13:48:00.939Z,54.79
2022-11-05T13:53:05.584Z,55.03
2022-11-05T13:58:26.178Z,54.86
2022-11-05T14:03:28.397Z,54.97
2022-11-05T14:08:34.135Z,55.21
2022-11-05T14:13:42.323Z,55.18
2022-11-05T14:18:45.680Z,54.98
2022-11-05T14:23:54.171Z,54.96
2022-11-05T14:28:58.786Z,54.98
2022-11-05T14:34:09.916Z,55.50
2022-11-05T14:39:18.703Z,55.43
2022-11-05T14:44:21.197Z,55.86
2022-11-05T14:49:29.006Z,55.23
2022-11-05T14:54:36.786Z,55.68
2022-11-05T14:59:53.023Z,55.51
2022-11-05T15:05:15.167Z,55.75
2022-11-05T15:10:17.412Z,55.74
2022-11-05T15:15:22.118Z,55.15
2022-11-05T15:20:29.644Z,55.23
2022-11-05T15:25:42.333Z,55.58
2022-11-05T15:31:01.219Z,55.59
2022-11-05T15:36:21.753Z,55.59
2022-11-05T15:41:26.029Z,55.40
2022-11-05T15:46:28.345Z,55.45
2022-11-05T15:51:30.323Z,55.43
2022-11-05T15:56:32.330Z,55.77
2022-11-05T16:01:45.322Z,55.54
2022-11-05T16:06:49.083Z,55.40
2022-11-05T16:12:10.088Z,55.54
2022-11-05T16:17:22.073Z,55.40
2022-11-05T16:22:24.961Z,55.46
2022-11-05T16:27:26.872Z,55.46
2022-11-05T16:32:31.527Z,55.75
2022-11-05T16:37:39.792Z,55.93
2022-11-05T16:42:42.313Z,55.91
2022-11-05T16:47:47.727Z,56.17
2022-11-05T16:52:49.844Z,55.75
2022-11-05T16:57:53.573Z,55.36
2022-11-05T17:02:56.337Z,55.47
2022-11-05T17:07:58.692Z,55.95
2022-11-05T17:13:01.265Z,55.85
2022-11-05T17:18:04.450Z,56.05
2022-11-05T17:23:06.433Z,55.93
2022-11-05T17:28:09.272Z,56.09
2022-11-05T17:33:12.100Z,55.64
2022-11-05T17:38:14.912Z,55.65
2022-11-05T17:43:17.184Z,55.83
2022-11-05T17:48:20.113Z,56.17
2022-11-05T17:53:22.010Z,55.92
2022-11-05T17:58:24.034Z,55.56
2022-11-05T18:03:25.926Z,55.94
2022-11-05T18:08:27.815Z,55.47
2022-11-05T18:13:29.680Z,55.70
2022-11-05T18:18:33.611Z,55.76
2022-11-05T18:23:35.558Z,55.82
2022-11-05T18:28:37.756Z,55.81
2022-11-05T18:33:39.705Z,55.89
2022-11-05T18:38:41.606Z,56.25
2022-11-05T18:43:43.550Z,56.06
2022-11-05T18:48:45.414Z,55.63
2022-11-05T18:53:47.309Z,56.07
2022-11-05T18:58:49.803Z,55.65
2022-11-05T19:03:52.211Z,56.02
2022-11-05T19:08:55.516Z,56.02
2022-11-05T19:13:57.422Z,55.75
2022-11-05T19:19:00.326Z,55.29
2022-11-05T19:24:02.961Z,55.64
2022-11-05T19:29:05.481Z,55.48
2022-11-05T19:34:07.416Z,55.46
2022-11-05T19:39:11.160Z,55.77
2022-11-05T19:44:13.408Z,55.38
2022-11-05T19:49:18.307Z,54.98
2022-11-05T19:54:20.196Z,54.90
2022-11-05T19:59:22.079Z,55.50
2022-11-05T20:04:23.988Z,55.68
2022-11-05T20:09:25.904Z,55.73
2022-11-05T20:14:27.868Z,55.95
2022-11-05T20:19:29.852Z,55.79
2022-11-05T20:24:31.782Z,55.49
2022-11-05T20:29:35.727Z,55.60
2022-11-05T20:34:38.090Z,55.16
2022-11-05T20:39:40.010Z,55.18
2022-11-05T20:44:41.944Z,55.61
2022-11-05T20:49:43.866Z,55.42
2022-11-05T20:54:45.921Z,55.89
2022-11-05T20:59:47.897Z,55.79
2022-11-05T21:04:49.953Z,55.63
2022-11-05T21:09:51.948Z,55.80
2022-11-05T21:14:53.997Z,55.37
2022-11-05T21:19:55.998Z,55.28
2022-11-05T21:24:57.931Z,55.13
2022-11-05T21:29:59.883Z,55.08
2022-11-05T21:35:01.822Z,55.53
2022-11-05T21:40:05.122Z,55.57
2022-11-05T21:45:07.202Z,55.21
2022-11-05T21:50:10.505Z,55.99
2022-11-05T21:55:31.523Z,55.54
2022-11-05T22:00:33.606Z,55.62
2022-11-05T22:05:35.562Z,56.20
2022-11-05T22:10:37.573Z,56.25
2022-11-05T22:15:39.488Z,55.71
2022-11-05T22:20:42.615Z,56.01
2022-11-05T22:25:44.569Z,56.16
2022-11-05T22:30:46.524Z,56.17
2022-11-05T22:35:48.776Z,56.05
2022-11-05T22:40:50.720Z,55.87
2022-11-05T22:45:52.704Z,55.75
2022-11-05T22:50:54.618Z,55.73
2022-11-05T22:55:56.520Z,55.92
2022-11-05T23:00:58.802Z,55.63
2022-11-05T23:06:02.154Z,56.46
2022-11-05T23:11:22.618Z,55.97
2022-11-05T23:16:42.926Z,56.30
2022-11-05T23:22:03.110Z,56.47
2022-11-05T23:27:05.049Z,56.80
2022-11-05T23:32:25.128Z,56.29
2022-11-05T23:37:47.335Z,56.44
2022-11-05T23:43:08.120Z,56.57
2022-11-05T23:48:36.188Z,55.96
2022-11-05T23:53:40.964Z,56.63
2022-11-05T23:58:43.065Z,56.02
